Current | Forecast
Updated: 8:00 AM +07 on December 16, 2017
Observed at Tolmachevo, Russia
Temperature -9°F
Windchill -27°F
Humidity 84%
Dew Point -13°F
Wind South at 9 mph
Pressure 30.89 in (Steady)
Conditions Clear
Visibility -
UV N/A
Clouds
Yesterday's Maximum -2°F
Yesterday's Minimum -6°F approx.
Yesterday's Heating Degree Days 69 approx.
Sunrise8:52 AM +06
Sunset4:05 PM +06
Moon Rise6:20 AM +06
Moon Set3:26 PM +06
Moon PhaseMoon Phase
Waning Crescent
Raw METARMETAR UNNT 160100Z 18004MPS CAVOK M23/M25 Q1046 R25/810155 R34/810160 NOSIG RMK QFE774/1033


Monday
. High: 55° F.
Tuesday
. High: 66° F.
Wednesday
. High: 71° F.
Thursday
. High: 68° F.
Friday
. High: 68° F.
Saturday
. High: 69° F.
Sunday
. High: 75° F.
Monday
. High: 68° F.

Units: English | Metric

Find the Weather for any City, State or Zipcode, or Country:

U.S. State List | Severe Weather | Tropical Storms | Ski Conditions
United States | Canada | Central America | South America | Asia | Europe | Australia | Africa | Islands

Weather Underground

© Copyright 2017
The Weather Company, LLC